sensor_id;sensor_type;location;lat;lon;timestamp;P1;durP1;ratioP1;P2;durP2;ratioP2
21820;SDS011;11073;48.586;12.066;2022-09-09T00:02:02;4.55;;;1.60;;
21820;SDS011;11073;48.586;12.066;2022-09-09T00:04:40;6.75;;;1.77;;
21820;SDS011;11073;48.586;12.066;2022-09-09T00:07:11;4.88;;;2.47;;
21820;SDS011;11073;48.586;12.066;2022-09-09T00:09:49;3.90;;;1.52;;
21820;SDS011;11073;48.586;12.066;2022-09-09T00:12:27;3.67;;;1.60;;
21820;SDS011;11073;48.586;12.066;2022-09-09T00:15:04;2.67;;;1.40;;
21820;SDS011;11073;48.586;12.066;2022-09-09T00:17:42;4.93;;;1.83;;
21820;SDS011;11073;48.586;12.066;2022-09-09T00:20:19;3.25;;;1.63;;
21820;SDS011;11073;48.586;12.066;2022-09-09T00:22:54;4.68;;;1.58;;
21820;SDS011;11073;48.586;12.066;2022-09-09T00:25:29;3.58;;;1.55;;
21820;SDS011;11073;48.586;12.066;2022-09-09T00:28:04;3.42;;;1.60;;
21820;SDS011;11073;48.586;12.066;2022-09-09T00:30:44;3.45;;;2.05;;
21820;SDS011;11073;48.586;12.066;2022-09-09T00:33:16;3.55;;;1.83;;
21820;SDS011;11073;48.586;12.066;2022-09-09T00:35:50;4.60;;;1.80;;
21820;SDS011;11073;48.586;12.066;2022-09-09T00:38:23;3.30;;;1.40;;
21820;SDS011;11073;48.586;12.066;2022-09-09T00:40:56;4.35;;;1.40;;
21820;SDS011;11073;48.586;12.066;2022-09-09T00:43:32;2.28;;;1.30;;
21820;SDS011;11073;48.586;12.066;2022-09-09T00:46:26;1.30;;;1.20;;
21820;SDS011;11073;48.586;12.066;2022-09-09T00:49:15;2.55;;;1.30;;
21820;SDS011;11073;48.586;12.066;2022-09-09T00:51:58;2.35;;;1.50;;
21820;SDS011;11073;48.586;12.066;2022-09-09T00:54:38;2.13;;;1.33;;
21820;SDS011;11073;48.586;12.066;2022-09-09T00:57:15;3.42;;;1.80;;
21820;SDS011;11073;48.586;12.066;2022-09-09T00:59:52;3.25;;;1.60;;
21820;SDS011;11073;48.586;12.066;2022-09-09T01:02:27;2.65;;;1.60;;
21820;SDS011;11073;48.586;12.066;2022-09-09T01:05:01;3.08;;;1.35;;
21820;SDS011;11073;48.586;12.066;2022-09-09T01:07:36;5.32;;;1.80;;
21820;SDS011;11073;48.586;12.066;2022-09-09T01:10:07;2.00;;;1.73;;
21820;SDS011;11073;48.586;12.066;2022-09-09T01:12:44;4.05;;;2.00;;
21820;SDS011;11073;48.586;12.066;2022-09-09T01:15:20;3.45;;;1.48;;
21820;SDS011;11073;48.586;12.066;2022-09-09T01:17:55;3.47;;;2.20;;
21820;SDS011;11073;48.586;12.066;2022-09-09T01:20:31;3.28;;;1.50;;
21820;SDS011;11073;48.586;12.066;2022-09-09T01:23:14;4.20;;;1.88;;
21820;SDS011;11073;48.586;12.066;2022-09-09T01:26:14;4.63;;;1.80;;
21820;SDS011;11073;48.586;12.066;2022-09-09T01:28:58;5.40;;;2.20;;
21820;SDS011;11073;48.586;12.066;2022-09-09T01:31:36;1.85;;;1.65;;
21820;SDS011;11073;48.586;12.066;2022-09-09T01:34:09;3.03;;;1.90;;
21820;SDS011;11073;48.586;12.066;2022-09-09T01:36:41;4.18;;;1.98;;
21820;SDS011;11073;48.586;12.066;2022-09-09T01:39:12;2.65;;;2.30;;
21820;SDS011;11073;48.586;12.066;2022-09-09T01:41:44;3.83;;;2.22;;
21820;SDS011;11073;48.586;12.066;2022-09-09T01:44:16;3.30;;;2.08;;
21820;SDS011;11073;48.586;12.066;2022-09-09T01:46:45;3.00;;;2.38;;
21820;SDS011;11073;48.586;12.066;2022-09-09T01:49:17;4.53;;;2.42;;
21820;SDS011;11073;48.586;12.066;2022-09-09T01:51:48;5.80;;;1.60;;
21820;SDS011;11073;48.586;12.066;2022-09-09T01:54:24;2.55;;;1.60;;
21820;SDS011;11073;48.586;12.066;2022-09-09T01:57:01;4.68;;;1.60;;
21820;SDS011;11073;48.586;12.066;2022-09-09T01:59:45;2.35;;;1.10;;
21820;SDS011;11073;48.586;12.066;2022-09-09T02:02:23;3.33;;;1.55;;
21820;SDS011;11073;48.586;12.066;2022-09-09T02:05:08;2.65;;;1.17;;
21820;SDS011;11073;48.586;12.066;2022-09-09T02:07:46;3.28;;;1.45;;
21820;SDS011;11073;48.586;12.066;2022-09-09T02:10:29;5.95;;;1.40;;
21820;SDS011;11073;48.586;12.066;2022-09-09T02:13:17;6.70;;;1.27;;
21820;SDS011;11073;48.586;12.066;2022-09-09T02:15:49;2.28;;;1.58;;
21820;SDS011;11073;48.586;12.066;2022-09-09T02:18:23;2.10;;;1.30;;
21820;SDS011;11073;48.586;12.066;2022-09-09T02:20:56;5.50;;;2.40;;
21820;SDS011;11073;48.586;12.066;2022-09-09T02:23:27;4.35;;;2.03;;
21820;SDS011;11073;48.586;12.066;2022-09-09T02:25:58;2.78;;;1.77;;
21820;SDS011;11073;48.586;12.066;2022-09-09T02:28:29;5.78;;;2.13;;
21820;SDS011;11073;48.586;12.066;2022-09-09T02:31:02;3.83;;;2.15;;
21820;SDS011;11073;48.586;12.066;2022-09-09T02:33:38;4.18;;;1.77;;
21820;SDS011;11073;48.586;12.066;2022-09-09T02:36:11;3.60;;;2.00;;
21820;SDS011;11073;48.586;12.066;2022-09-09T02:38:45;5.25;;;1.80;;
21820;SDS011;11073;48.586;12.066;2022-09-09T02:41:20;3.13;;;1.52;;
21820;SDS011;11073;48.586;12.066;2022-09-09T02:43:56;1.33;;;1.23;;
21820;SDS011;11073;48.586;12.066;2022-09-09T02:46:35;5.32;;;1.50;;
21820;SDS011;11073;48.586;12.066;2022-09-09T02:49:11;3.35;;;1.70;;
21820;SDS011;11073;48.586;12.066;2022-09-09T02:51:48;5.47;;;2.28;;
21820;SDS011;11073;48.586;12.066;2022-09-09T02:54:26;5.32;;;2.10;;
21820;SDS011;11073;48.586;12.066;2022-09-09T02:57:03;4.78;;;2.08;;
21820;SDS011;11073;48.586;12.066;2022-09-09T02:59:39;1.92;;;1.55;;
21820;SDS011;11073;48.586;12.066;2022-09-09T03:02:08;6.57;;;1.70;;
21820;SDS011;11073;48.586;12.066;2022-09-09T03:04:40;6.85;;;1.88;;
21820;SDS011;11073;48.586;12.066;2022-09-09T03:07:13;3.20;;;1.90;;
21820;SDS011;11073;48.586;12.066;2022-09-09T03:09:44;2.17;;;1.33;;
21820;SDS011;11073;48.586;12.066;2022-09-09T03:12:13;3.45;;;1.40;;
21820;SDS011;11073;48.586;12.066;2022-09-09T03:14:43;3.17;;;1.80;;
21820;SDS011;11073;48.586;12.066;2022-09-09T03:17:13;3.25;;;2.08;;
21820;SDS011;11073;48.586;12.066;2022-09-09T03:19:49;4.07;;;2.47;;
21820;SDS011;11073;48.586;12.066;2022-09-09T03:22:22;2.70;;;2.28;;
21820;SDS011;11073;48.586;12.066;2022-09-09T03:24:50;2.50;;;2.22;;
21820;SDS011;11073;48.586;12.066;2022-09-09T03:27:19;4.13;;;1.60;;
21820;SDS011;11073;48.586;12.066;2022-09-09T03:29:50;2.95;;;2.00;;
21820;SDS011;11073;48.586;12.066;2022-09-09T03:32:23;1.95;;;1.60;;
21820;SDS011;11073;48.586;12.066;2022-09-09T03:34:56;3.53;;;1.77;;
21820;SDS011;11073;48.586;12.066;2022-09-09T03:37:25;4.68;;;1.63;;
21820;SDS011;11073;48.586;12.066;2022-09-09T03:39:54;6.35;;;1.90;;
21820;SDS011;11073;48.586;12.066;2022-09-09T03:42:23;3.08;;;2.15;;
21820;SDS011;11073;48.586;12.066;2022-09-09T03:44:55;2.80;;;2.00;;
21820;SDS011;11073;48.586;12.066;2022-09-09T03:47:26;2.53;;;1.60;;
21820;SDS011;11073;48.586;12.066;2022-09-09T03:50:02;5.20;;;1.58;;
21820;SDS011;11073;48.586;12.066;2022-09-09T03:52:33;9.32;;;5.43;;
21820;SDS011;11073;48.586;12.066;2022-09-09T03:55:03;6.10;;;2.78;;
21820;SDS011;11073;48.586;12.066;2022-09-09T03:57:34;4.97;;;2.30;;
21820;SDS011;11073;48.586;12.066;2022-09-09T04:00:09;2.60;;;1.70;;
21820;SDS011;11073;48.586;12.066;2022-09-09T04:02:50;4.38;;;1.70;;
21820;SDS011;11073;48.586;12.066;2022-09-09T04:05:21;3.50;;;1.67;;
21820;SDS011;11073;48.586;12.066;2022-09-09T04:07:50;4.57;;;1.88;;
21820;SDS011;11073;48.586;12.066;2022-09-09T04:10:20;3.00;;;1.42;;
21820;SDS011;11073;48.586;12.066;2022-09-09T04:12:49;4.03;;;1.70;;
21820;SDS011;11073;48.586;12.066;2022-09-09T04:15:19;2.70;;;1.40;;
21820;SDS011;11073;48.586;12.066;2022-09-09T04:17:48;3.45;;;1.80;;
21820;SDS011;11073;48.586;12.066;2022-09-09T04:20:17;8.07;;;2.13;;
21820;SDS011;11073;48.586;12.066;2022-09-09T04:22:46;5.10;;;1.95;;
21820;SDS011;11073;48.586;12.066;2022-09-09T04:25:15;2.83;;;1.63;;
21820;SDS011;11073;48.586;12.066;2022-09-09T04:27:43;4.55;;;1.85;;
21820;SDS011;11073;48.586;12.066;2022-09-09T04:30:12;2.50;;;1.40;;
21820;SDS011;11073;48.586;12.066;2022-09-09T04:32:43;3.03;;;1.50;;
21820;SDS011;11073;48.586;12.066;2022-09-09T04:35:12;4.65;;;2.10;;
21820;SDS011;11073;48.586;12.066;2022-09-09T04:37:40;3.75;;;1.90;;
21820;SDS011;11073;48.586;12.066;2022-09-09T04:40:09;3.80;;;2.35;;
21820;SDS011;11073;48.586;12.066;2022-09-09T04:42:38;4.85;;;1.80;;
21820;SDS011;11073;48.586;12.066;2022-09-09T04:45:13;3.47;;;1.63;;
21820;SDS011;11073;48.586;12.066;2022-09-09T04:47:43;2.40;;;1.60;;
21820;SDS011;11073;48.586;12.066;2022-09-09T04:50:13;5.85;;;2.00;;
21820;SDS011;11073;48.586;12.066;2022-09-09T04:52:45;3.05;;;1.90;;
21820;SDS011;11073;48.586;12.066;2022-09-09T04:55:14;3.55;;;2.35;;
21820;SDS011;11073;48.586;12.066;2022-09-09T04:57:44;3.85;;;1.95;;
21820;SDS011;11073;48.586;12.066;2022-09-09T05:00:14;5.18;;;2.30;;
21820;SDS011;11073;48.586;12.066;2022-09-09T05:02:46;4.00;;;2.10;;
21820;SDS011;11073;48.586;12.066;2022-09-09T05:05:15;2.35;;;2.10;;
21820;SDS011;11073;48.586;12.066;2022-09-09T05:07:44;2.35;;;1.80;;
21820;SDS011;11073;48.586;12.066;2022-09-09T05:10:14;4.38;;;1.83;;
21820;SDS011;11073;48.586;12.066;2022-09-09T05:12:51;3.35;;;1.63;;
21820;SDS011;11073;48.586;12.066;2022-09-09T05:15:23;2.58;;;1.50;;
21820;SDS011;11073;48.586;12.066;2022-09-09T05:17:53;4.28;;;1.75;;
21820;SDS011;11073;48.586;12.066;2022-09-09T05:20:27;3.08;;;1.75;;
21820;SDS011;11073;48.586;12.066;2022-09-09T05:22:56;2.20;;;1.70;;
21820;SDS011;11073;48.586;12.066;2022-09-09T05:25:28;3.88;;;1.85;;
21820;SDS011;11073;48.586;12.066;2022-09-09T05:27:58;2.15;;;1.23;;
21820;SDS011;11073;48.586;12.066;2022-09-09T05:30:27;4.72;;;2.05;;
21820;SDS011;11073;48.586;12.066;2022-09-09T05:32:57;2.60;;;1.92;;
21820;SDS011;11073;48.586;12.066;2022-09-09T05:35:27;5.20;;;1.80;;
21820;SDS011;11073;48.586;12.066;2022-09-09T05:37:58;3.47;;;2.05;;
21820;SDS011;11073;48.586;12.066;2022-09-09T05:40:28;4.07;;;2.30;;
21820;SDS011;11073;48.586;12.066;2022-09-09T05:42:59;2.60;;;1.95;;
21820;SDS011;11073;48.586;12.066;2022-09-09T05:45:29;3.92;;;1.65;;
21820;SDS011;11073;48.586;12.066;2022-09-09T05:47:59;3.80;;;1.77;;
21820;SDS011;11073;48.586;12.066;2022-09-09T05:50:29;3.78;;;1.65;;
21820;SDS011;11073;48.586;12.066;2022-09-09T05:52:58;2.97;;;1.75;;
21820;SDS011;11073;48.586;12.066;2022-09-09T05:55:28;3.35;;;1.60;;
21820;SDS011;11073;48.586;12.066;2022-09-09T05:57:57;4.75;;;1.73;;
21820;SDS011;11073;48.586;12.066;2022-09-09T06:00:27;2.33;;;1.80;;
21820;SDS011;11073;48.586;12.066;2022-09-09T06:02:57;3.85;;;1.52;;
21820;SDS011;11073;48.586;12.066;2022-09-09T06:05:29;5.03;;;2.05;;
21820;SDS011;11073;48.586;12.066;2022-09-09T06:07:58;5.00;;;2.42;;
21820;SDS011;11073;48.586;12.066;2022-09-09T06:10:27;4.47;;;2.15;;
21820;SDS011;11073;48.586;12.066;2022-09-09T06:12:55;3.40;;;1.75;;
21820;SDS011;11073;48.586;12.066;2022-09-09T06:15:24;7.05;;;2.40;;
21820;SDS011;11073;48.586;12.066;2022-09-09T06:17:54;5.40;;;3.20;;
21820;SDS011;11073;48.586;12.066;2022-09-09T06:20:23;5.03;;;2.97;;
21820;SDS011;11073;48.586;12.066;2022-09-09T06:22:52;6.47;;;3.63;;
21820;SDS011;11073;48.586;12.066;2022-09-09T06:25:22;3.35;;;2.80;;
21820;SDS011;11073;48.586;12.066;2022-09-09T06:27:51;9.07;;;2.65;;
21820;SDS011;11073;48.586;12.066;2022-09-09T06:30:19;4.32;;;2.50;;
21820;SDS011;11073;48.586;12.066;2022-09-09T06:32:48;5.22;;;2.80;;
21820;SDS011;11073;48.586;12.066;2022-09-09T06:35:17;3.17;;;2.42;;
21820;SDS011;11073;48.586;12.066;2022-09-09T06:37:45;6.25;;;2.88;;
21820;SDS011;11073;48.586;12.066;2022-09-09T06:40:19;7.90;;;3.53;;
21820;SDS011;11073;48.586;12.066;2022-09-09T06:42:48;4.40;;;2.85;;
21820;SDS011;11073;48.586;12.066;2022-09-09T06:45:32;6.47;;;3.30;;
21820;SDS011;11073;48.586;12.066;2022-09-09T06:48:03;7.57;;;3.50;;
21820;SDS011;11073;48.586;12.066;2022-09-09T06:50:32;3.47;;;3.03;;
21820;SDS011;11073;48.586;12.066;2022-09-09T06:53:01;6.80;;;3.10;;
21820;SDS011;11073;48.586;12.066;2022-09-09T06:55:31;7.75;;;3.63;;
21820;SDS011;11073;48.586;12.066;2022-09-09T06:58:01;4.10;;;3.25;;
21820;SDS011;11073;48.586;12.066;2022-09-09T07:00:30;9.25;;;3.25;;
21820;SDS011;11073;48.586;12.066;2022-09-09T07:02:58;3.90;;;2.95;;
21820;SDS011;11073;48.586;12.066;2022-09-09T07:05:28;4.30;;;2.70;;
21820;SDS011;11073;48.586;12.066;2022-09-09T07:07:56;4.20;;;3.00;;
21820;SDS011;11073;48.586;12.066;2022-09-09T07:10:26;6.50;;;3.47;;
21820;SDS011;11073;48.586;12.066;2022-09-09T07:12:56;6.18;;;3.70;;
21820;SDS011;11073;48.586;12.066;2022-09-09T07:15:25;8.27;;;3.45;;
21820;SDS011;11073;48.586;12.066;2022-09-09T07:17:54;12.98;;;4.97;;
21820;SDS011;11073;48.586;12.066;2022-09-09T07:20:24;8.05;;;3.88;;
21820;SDS011;11073;48.586;12.066;2022-09-09T07:22:54;7.43;;;4.15;;
21820;SDS011;11073;48.586;12.066;2022-09-09T07:25:23;6.95;;;3.20;;
21820;SDS011;11073;48.586;12.066;2022-09-09T07:27:51;5.25;;;3.13;;
21820;SDS011;11073;48.586;12.066;2022-09-09T07:30:22;6.05;;;3.50;;
21820;SDS011;11073;48.586;12.066;2022-09-09T07:32:54;6.68;;;3.42;;
21820;SDS011;11073;48.586;12.066;2022-09-09T07:35:24;4.47;;;3.95;;
21820;SDS011;11073;48.586;12.066;2022-09-09T07:37:54;4.60;;;3.08;;
21820;SDS011;11073;48.586;12.066;2022-09-09T07:40:23;6.15;;;2.83;;
21820;SDS011;11073;48.586;12.066;2022-09-09T07:42:52;4.32;;;2.75;;
21820;SDS011;11073;48.586;12.066;2022-09-09T07:45:23;5.05;;;2.97;;
21820;SDS011;11073;48.586;12.066;2022-09-09T07:47:52;5.40;;;2.40;;
21820;SDS011;11073;48.586;12.066;2022-09-09T07:50:20;3.50;;;2.10;;
21820;SDS011;11073;48.586;12.066;2022-09-09T07:52:51;2.92;;;2.17;;
21820;SDS011;11073;48.586;12.066;2022-09-09T07:55:20;3.10;;;2.60;;
21820;SDS011;11073;48.586;12.066;2022-09-09T07:57:53;5.00;;;2.40;;
21820;SDS011;11073;48.586;12.066;2022-09-09T08:00:25;5.75;;;2.30;;
21820;SDS011;11073;48.586;12.066;2022-09-09T08:02:57;5.00;;;1.90;;
21820;SDS011;11073;48.586;12.066;2022-09-09T08:05:29;3.30;;;1.85;;
21820;SDS011;11073;48.586;12.066;2022-09-09T08:07:57;5.05;;;1.90;;
21820;SDS011;11073;48.586;12.066;2022-09-09T08:10:28;4.70;;;1.90;;
21820;SDS011;11073;48.586;12.066;2022-09-09T08:12:58;6.28;;;2.33;;
21820;SDS011;11073;48.586;12.066;2022-09-09T08:15:46;4.38;;;2.17;;
21820;SDS011;11073;48.586;12.066;2022-09-09T08:18:16;3.20;;;1.88;;
21820;SDS011;11073;48.586;12.066;2022-09-09T08:20:46;4.05;;;1.80;;
21820;SDS011;11073;48.586;12.066;2022-09-09T08:23:15;5.38;;;1.92;;
21820;SDS011;11073;48.586;12.066;2022-09-09T08:25:44;3.53;;;1.70;;
21820;SDS011;11073;48.586;12.066;2022-09-09T08:28:13;2.65;;;1.50;;
21820;SDS011;11073;48.586;12.066;2022-09-09T08:30:42;4.07;;;2.10;;
21820;SDS011;11073;48.586;12.066;2022-09-09T08:33:12;3.25;;;1.90;;
21820;SDS011;11073;48.586;12.066;2022-09-09T08:35:49;4.82;;;1.80;;
21820;SDS011;11073;48.586;12.066;2022-09-09T08:38:19;3.75;;;2.30;;
21820;SDS011;11073;48.586;12.066;2022-09-09T08:40:48;4.88;;;2.20;;
21820;SDS011;11073;48.586;12.066;2022-09-09T08:43:21;4.57;;;1.90;;
21820;SDS011;11073;48.586;12.066;2022-09-09T08:45:54;7.10;;;2.50;;
21820;SDS011;11073;48.586;12.066;2022-09-09T08:48:38;4.03;;;2.42;;
21820;SDS011;11073;48.586;12.066;2022-09-09T08:51:16;4.32;;;2.28;;
21820;SDS011;11073;48.586;12.066;2022-09-09T08:53:46;6.65;;;2.55;;
21820;SDS011;11073;48.586;12.066;2022-09-09T08:56:18;5.32;;;2.50;;
21820;SDS011;11073;48.586;12.066;2022-09-09T08:58:54;3.83;;;2.05;;
21820;SDS011;11073;48.586;12.066;2022-09-09T09:01:42;5.43;;;2.10;;
21820;SDS011;11073;48.586;12.066;2022-09-09T09:04:33;4.47;;;2.50;;
21820;SDS011;11073;48.586;12.066;2022-09-09T09:07:14;4.20;;;2.33;;
21820;SDS011;11073;48.586;12.066;2022-09-09T09:10:00;5.68;;;2.70;;
21820;SDS011;11073;48.586;12.066;2022-09-09T09:12:58;5.35;;;2.45;;
21820;SDS011;11073;48.586;12.066;2022-09-09T09:15:31;4.68;;;2.30;;
21820;SDS011;11073;48.586;12.066;2022-09-09T09:18:05;3.20;;;2.22;;
21820;SDS011;11073;48.586;12.066;2022-09-09T09:20:42;6.07;;;2.70;;
21820;SDS011;11073;48.586;12.066;2022-09-09T09:23:21;4.13;;;2.00;;
21820;SDS011;11073;48.586;12.066;2022-09-09T09:25:55;5.57;;;2.60;;
21820;SDS011;11073;48.586;12.066;2022-09-09T09:28:29;6.55;;;2.30;;
21820;SDS011;11073;48.586;12.066;2022-09-09T09:31:10;3.20;;;2.40;;
21820;SDS011;11073;48.586;12.066;2022-09-09T09:33:46;4.93;;;2.33;;
21820;SDS011;11073;48.586;12.066;2022-09-09T09:36:20;6.30;;;2.80;;
21820;SDS011;11073;48.586;12.066;2022-09-09T09:38:55;5.65;;;2.33;;
21820;SDS011;11073;48.586;12.066;2022-09-09T09:41:46;3.80;;;2.50;;
21820;SDS011;11073;48.586;12.066;2022-09-09T09:44:22;4.95;;;3.00;;
21820;SDS011;11073;48.586;12.066;2022-09-09T09:47:05;5.25;;;2.78;;
21820;SDS011;11073;48.586;12.066;2022-09-09T09:49:36;6.35;;;2.90;;
21820;SDS011;11073;48.586;12.066;2022-09-09T09:52:06;4.60;;;2.17;;
21820;SDS011;11073;48.586;12.066;2022-09-09T09:54:37;3.78;;;1.88;;
21820;SDS011;11073;48.586;12.066;2022-09-09T09:57:08;3.90;;;1.58;;
21820;SDS011;11073;48.586;12.066;2022-09-09T09:59:41;2.72;;;1.80;;
21820;SDS011;11073;48.586;12.066;2022-09-09T10:02:17;3.10;;;1.52;;
21820;SDS011;11073;48.586;12.066;2022-09-09T10:05:02;5.00;;;1.83;;
21820;SDS011;11073;48.586;12.066;2022-09-09T10:07:36;3.35;;;1.83;;
21820;SDS011;11073;48.586;12.066;2022-09-09T10:10:08;3.38;;;2.00;;
21820;SDS011;11073;48.586;12.066;2022-09-09T10:12:45;3.50;;;2.75;;
21820;SDS011;11073;48.586;12.066;2022-09-09T10:15:31;9.10;;;3.65;;
21820;SDS011;11073;48.586;12.066;2022-09-09T10:21:19;11.43;;;7.28;;
21820;SDS011;11073;48.586;12.066;2022-09-09T10:24:07;9.60;;;5.68;;
21820;SDS011;11073;48.586;12.066;2022-09-09T10:26:58;8.20;;;3.58;;
21820;SDS011;11073;48.586;12.066;2022-09-09T10:29:32;6.47;;;3.83;;
21820;SDS011;11073;48.586;12.066;2022-09-09T10:32:24;8.20;;;4.20;;
21820;SDS011;11073;48.586;12.066;2022-09-09T10:35:08;7.93;;;4.32;;
21820;SDS011;11073;48.586;12.066;2022-09-09T10:37:50;6.95;;;4.35;;
21820;SDS011;11073;48.586;12.066;2022-09-09T10:40:36;8.50;;;3.50;;
21820;SDS011;11073;48.586;12.066;2022-09-09T10:43:14;8.20;;;4.45;;
21820;SDS011;11073;48.586;12.066;2022-09-09T10:45:59;5.65;;;3.33;;
21820;SDS011;11073;48.586;12.066;2022-09-09T10:48:39;5.15;;;3.30;;
21820;SDS011;11073;48.586;12.066;2022-09-09T10:51:28;4.03;;;2.35;;
21820;SDS011;11073;48.586;12.066;2022-09-09T10:54:17;4.38;;;2.92;;
21820;SDS011;11073;48.586;12.066;2022-09-09T10:56:58;5.03;;;2.90;;
21820;SDS011;11073;48.586;12.066;2022-09-09T10:59:33;6.82;;;3.20;;
21820;SDS011;11073;48.586;12.066;2022-09-09T11:02:06;5.28;;;2.80;;
21820;SDS011;11073;48.586;12.066;2022-09-09T11:04:45;7.85;;;3.05;;
21820;SDS011;11073;48.586;12.066;2022-09-09T11:07:22;3.47;;;2.20;;
21820;SDS011;11073;48.586;12.066;2022-09-09T11:09:58;4.45;;;2.50;;
21820;SDS011;11073;48.586;12.066;2022-09-09T11:12:35;2.55;;;2.05;;
21820;SDS011;11073;48.586;12.066;2022-09-09T11:15:09;6.30;;;2.95;;
21820;SDS011;11073;48.586;12.066;2022-09-09T11:17:45;4.20;;;2.50;;
21820;SDS011;11073;48.586;12.066;2022-09-09T11:20:17;3.00;;;2.10;;
21820;SDS011;11073;48.586;12.066;2022-09-09T11:22:47;4.70;;;2.22;;
21820;SDS011;11073;48.586;12.066;2022-09-09T11:25:20;4.45;;;2.63;;
21820;SDS011;11073;48.586;12.066;2022-09-09T11:28:02;5.22;;;2.15;;
21820;SDS011;11073;48.586;12.066;2022-09-09T11:30:46;3.65;;;2.22;;
21820;SDS011;11073;48.586;12.066;2022-09-09T11:33:37;6.68;;;2.40;;
21820;SDS011;11073;48.586;12.066;2022-09-09T11:36:36;6.03;;;2.38;;
21820;SDS011;11073;48.586;12.066;2022-09-09T11:39:22;5.03;;;2.65;;
21820;SDS011;11073;48.586;12.066;2022-09-09T11:42:07;4.50;;;2.38;;
21820;SDS011;11073;48.586;12.066;2022-09-09T11:44:38;3.67;;;2.58;;
21820;SDS011;11073;48.586;12.066;2022-09-09T11:47:15;3.30;;;2.70;;
21820;SDS011;11073;48.586;12.066;2022-09-09T11:49:48;3.55;;;2.20;;
21820;SDS011;11073;48.586;12.066;2022-09-09T11:52:21;5.15;;;2.17;;
21820;SDS011;11073;48.586;12.066;2022-09-09T11:54:54;5.45;;;2.08;;
21820;SDS011;11073;48.586;12.066;2022-09-09T11:57:24;2.55;;;2.10;;
21820;SDS011;11073;48.586;12.066;2022-09-09T12:00:00;4.72;;;1.80;;
21820;SDS011;11073;48.586;12.066;2022-09-09T12:02:37;4.13;;;2.17;;
21820;SDS011;11073;48.586;12.066;2022-09-09T12:05:18;3.03;;;2.05;;
21820;SDS011;11073;48.586;12.066;2022-09-09T12:07:50;3.15;;;1.98;;
21820;SDS011;11073;48.586;12.066;2022-09-09T12:10:23;3.88;;;1.90;;
21820;SDS011;11073;48.586;12.066;2022-09-09T12:12:55;5.75;;;2.00;;
21820;SDS011;11073;48.586;12.066;2022-09-09T12:15:46;3.88;;;1.95;;
21820;SDS011;11073;48.586;12.066;2022-09-09T12:18:21;3.65;;;1.75;;
21820;SDS011;11073;48.586;12.066;2022-09-09T12:20:54;4.25;;;1.88;;
21820;SDS011;11073;48.586;12.066;2022-09-09T12:23:33;2.83;;;1.70;;
21820;SDS011;11073;48.586;12.066;2022-09-09T12:26:17;3.88;;;1.63;;
21820;SDS011;11073;48.586;12.066;2022-09-09T12:28:54;4.53;;;1.88;;
21820;SDS011;11073;48.586;12.066;2022-09-09T12:31:33;2.95;;;2.10;;
21820;SDS011;11073;48.586;12.066;2022-09-09T12:34:13;3.10;;;1.60;;
21820;SDS011;11073;48.586;12.066;2022-09-09T12:36:45;2.80;;;1.52;;
21820;SDS011;11073;48.586;12.066;2022-09-09T12:39:22;2.83;;;1.45;;
21820;SDS011;11073;48.586;12.066;2022-09-09T12:41:58;2.25;;;1.38;;
21820;SDS011;11073;48.586;12.066;2022-09-09T12:44:27;2.47;;;1.10;;
21820;SDS011;11073;48.586;12.066;2022-09-09T12:46:58;1.92;;;1.05;;
21820;SDS011;11073;48.586;12.066;2022-09-09T12:49:30;2.42;;;1.05;;
21820;SDS011;11073;48.586;12.066;2022-09-09T12:52:02;2.15;;;0.93;;
21820;SDS011;11073;48.586;12.066;2022-09-09T12:54:33;3.03;;;0.88;;
21820;SDS011;11073;48.586;12.066;2022-09-09T12:57:04;1.27;;;0.80;;
21820;SDS011;11073;48.586;12.066;2022-09-09T12:59:37;2.67;;;1.10;;
21820;SDS011;11073;48.586;12.066;2022-09-09T13:02:16;1.98;;;1.00;;
21820;SDS011;11073;48.586;12.066;2022-09-09T13:04:47;2.55;;;1.10;;
21820;SDS011;11073;48.586;12.066;2022-09-09T13:07:17;2.75;;;1.00;;
21820;SDS011;11073;48.586;12.066;2022-09-09T13:09:47;1.42;;;0.90;;
21820;SDS011;11073;48.586;12.066;2022-09-09T13:12:18;3.15;;;1.10;;
21820;SDS011;11073;48.586;12.066;2022-09-09T13:14:48;1.98;;;1.13;;
21820;SDS011;11073;48.586;12.066;2022-09-09T13:17:21;3.13;;;0.93;;
21820;SDS011;11073;48.586;12.066;2022-09-09T13:19:52;2.60;;;1.05;;
21820;SDS011;11073;48.586;12.066;2022-09-09T13:22:29;3.42;;;1.17;;
21820;SDS011;11073;48.586;12.066;2022-09-09T13:25:05;1.85;;;0.95;;
21820;SDS011;11073;48.586;12.066;2022-09-09T13:27:51;1.70;;;1.10;;
21820;SDS011;11073;48.586;12.066;2022-09-09T13:30:23;2.60;;;1.20;;
21820;SDS011;11073;48.586;12.066;2022-09-09T13:33:18;2.35;;;0.90;;
21820;SDS011;11073;48.586;12.066;2022-09-09T13:35:51;1.60;;;0.80;;
21820;SDS011;11073;48.586;12.066;2022-09-09T13:38:22;2.65;;;1.00;;
21820;SDS011;11073;48.586;12.066;2022-09-09T13:40:54;3.47;;;0.85;;
21820;SDS011;11073;48.586;12.066;2022-09-09T13:43:25;2.28;;;0.85;;
21820;SDS011;11073;48.586;12.066;2022-09-09T13:45:55;2.25;;;0.80;;
21820;SDS011;11073;48.586;12.066;2022-09-09T13:48:27;4.30;;;0.90;;
21820;SDS011;11073;48.586;12.066;2022-09-09T13:50:58;1.08;;;0.55;;
21820;SDS011;11073;48.586;12.066;2022-09-09T13:53:28;3.97;;;0.80;;
21820;SDS011;11073;48.586;12.066;2022-09-09T13:55:57;2.30;;;0.80;;
21820;SDS011;11073;48.586;12.066;2022-09-09T13:58:28;2.03;;;0.60;;
21820;SDS011;11073;48.586;12.066;2022-09-09T14:00:56;1.77;;;0.52;;
21820;SDS011;11073;48.586;12.066;2022-09-09T14:03:25;1.77;;;0.60;;
21820;SDS011;11073;48.586;12.066;2022-09-09T14:05:55;2.33;;;0.50;;
21820;SDS011;11073;48.586;12.066;2022-09-09T14:08:25;1.63;;;0.93;;
21820;SDS011;11073;48.586;12.066;2022-09-09T14:11:04;3.55;;;0.63;;
21820;SDS011;11073;48.586;12.066;2022-09-09T14:13:33;0.80;;;0.55;;
21820;SDS011;11073;48.586;12.066;2022-09-09T14:16:01;2.03;;;0.73;;
21820;SDS011;11073;48.586;12.066;2022-09-09T14:18:30;1.75;;;0.70;;
21820;SDS011;11073;48.586;12.066;2022-09-09T14:21:00;3.58;;;0.75;;
21820;SDS011;11073;48.586;12.066;2022-09-09T14:23:29;3.28;;;0.65;;
21820;SDS011;11073;48.586;12.066;2022-09-09T14:25:59;1.75;;;0.60;;
21820;SDS011;11073;48.586;12.066;2022-09-09T14:28:28;1.38;;;0.57;;
21820;SDS011;11073;48.586;12.066;2022-09-09T14:31:17;2.65;;;0.75;;
21820;SDS011;11073;48.586;12.066;2022-09-09T14:33:46;2.55;;;1.00;;
21820;SDS011;11073;48.586;12.066;2022-09-09T14:36:16;3.38;;;0.70;;
21820;SDS011;11073;48.586;12.066;2022-09-09T14:38:44;1.42;;;0.57;;
21820;SDS011;11073;48.586;12.066;2022-09-09T14:41:14;2.45;;;0.63;;
21820;SDS011;11073;48.586;12.066;2022-09-09T14:43:45;1.23;;;0.85;;
21820;SDS011;11073;48.586;12.066;2022-09-09T14:46:15;1.92;;;0.70;;
21820;SDS011;11073;48.586;12.066;2022-09-09T14:48:45;1.52;;;0.50;;
21820;SDS011;11073;48.586;12.066;2022-09-09T14:51:17;0.80;;;0.50;;
21820;SDS011;11073;48.586;12.066;2022-09-09T14:53:50;1.60;;;0.47;;
21820;SDS011;11073;48.586;12.066;2022-09-09T14:56:21;1.77;;;0.60;;
21820;SDS011;11073;48.586;12.066;2022-09-09T14:58:52;0.77;;;0.40;;
21820;SDS011;11073;48.586;12.066;2022-09-09T15:01:23;1.45;;;0.63;;
21820;SDS011;11073;48.586;12.066;2022-09-09T15:03:54;1.88;;;0.60;;
21820;SDS011;11073;48.586;12.066;2022-09-09T15:06:27;2.05;;;0.68;;
21820;SDS011;11073;48.586;12.066;2022-09-09T15:08:57;3.58;;;0.80;;
21820;SDS011;11073;48.586;12.066;2022-09-09T15:11:27;1.35;;;0.60;;
21820;SDS011;11073;48.586;12.066;2022-09-09T15:13:57;1.08;;;0.60;;
21820;SDS011;11073;48.586;12.066;2022-09-09T15:16:26;1.60;;;0.65;;